^^
Saratoga-Weather Station Historical Data
Daily Summary for August 7, 2020 Units:  Metric    English   Both
Daily Weekly Monthly Yearly Custom
  High: Low: Average:
Temperature: 23.1 °C 8.7 °C 16.6 °C
Dew Point: 10.4 °C 7 °C 8.6 °C
Humidity: 90% 40% 62%
Wind Speed: 11.1km/h 0km/h 2.4km/h
Wind Gust: 16.1km/h - -
Wind- - WSW
Pressure: 1021.3 hPa 1017.3 hPa -
Precipitation: 0.0 mm    
Historical Graphs
 
 
Tabular Data for August 7, 2020
Time Temperature Dew Point Pressure Wind Wind Speed Wind Gust Humidity Rainfall Rate (Hourly) solar
00:02 13.9 °C 8.3 °C 1021.3 hPa WSW 1.4 km/h 1.6 km/h 69% 0.0 mm 0 W/m2
00:07 13.8 °C 8.2 °C 1021.3 hPa WSW 1.4 km/h 4.8 km/h 69% 0.0 mm 0 W/m2
00:12 13.9 °C 8.3 °C 1021.3 hPa WSW 1.4 km/h 3.2 km/h 69% 0.0 mm 0 W/m2
00:17 13.8 °C 8.4 °C 1021.3 hPa WSW 1.4 km/h 3.2 km/h 70% 0.0 mm 0 W/m2
00:22 13.8 °C 8.4 °C 1021.3 hPa West 3.2 km/h 3.2 km/h 70% 0.0 mm 0 W/m2
00:27 13.7 °C 8.3 °C 1021.3 hPa WNW 3.2 km/h 3.2 km/h 70% 0.0 mm 0 W/m2
00:33 13.6 °C 8.2 °C 1021.3 hPa WSW 3.2 km/h 3.2 km/h 70% 0.0 mm 0 W/m2
00:38 13.6 °C 8.2 °C 1021.3 hPa WSW 4.7 km/h 4.8 km/h 70% 0.0 mm 0 W/m2
00:43 13.6 °C 8.2 °C 1021.3 hPa WSW 1.4 km/h 6.4 km/h 70% 0.0 mm 0 W/m2
00:48 13.6 °C 8 °C 1021.3 hPa WSW 4.7 km/h 9.7 km/h 69% 0.0 mm 0 W/m2
00:53 13.7 °C 8.1 °C 1021.3 hPa WSW 4.7 km/h 11.3 km/h 69% 0.0 mm 0 W/m2
00:58 13.8 °C 8.2 °C 1021.3 hPa West 9.7 km/h 9.7 km/h 69% 0.0 mm 0 W/m2
01:03 13.8 °C 8 °C 1021.3 hPa SW 3.2 km/h 4.8 km/h 68% 0.0 mm 0 W/m2
01:08 13.8 °C 8 °C 1021.3 hPa West 1.4 km/h 4.8 km/h 68% 0.0 mm 0 W/m2
01:13 13.7 °C 7.9 °C 1021.3 hPa West 4.7 km/h 4.8 km/h 68% 0.0 mm 0 W/m2
01:18 13.6 °C 8 °C 1021.3 hPa West 1.4 km/h 4.8 km/h 69% 0.0 mm 0 W/m2
01:23 13.5 °C 7.9 °C 1021.3 hPa Calm   4.8 km/h 69% 0.0 mm 0 W/m2
01:28 13.3 °C 7.9 °C 1021.3 hPa West 1.4 km/h 3.2 km/h 70% 0.0 mm 0 W/m2
01:33 13.2 °C 7.8 °C 1021.3 hPa West 1.4 km/h 1.6 km/h 70% 0.0 mm 0 W/m2
01:38 13.1 °C 7.8 °C 1021.3 hPa Calm   1.6 km/h 70% 0.0 mm 0 W/m2
01:43 13 °C 7.9 °C 1021.3 hPa West 1.4 km/h 1.6 km/h 71% 0.0 mm 0 W/m2
01:48 12.8 °C 7.7 °C 1021.3 hPa Calm   1.6 km/h 71% 0.0 mm 0 W/m2
01:53 12.8 °C 7.9 °C 1021.3 hPa WSW 1.4 km/h 3.2 km/h 72% 0.0 mm 0 W/m2
01:58 12.7 °C 7.8 °C 1021.3 hPa WSW 1.4 km/h 4.8 km/h 72% 0.0 mm 0 W/m2
02:03 12.6 °C 7.7 °C 1021.3 hPa Calm   1.6 km/h 72% 0.0 mm 0 W/m2
02:08 12.5 °C 7.8 °C 1021.3 hPa Calm   4.8 km/h 73% 0.0 mm 0 W/m2
02:13 12.3 °C 7.6 °C 1021.3 hPa Calm     73% 0.0 mm 0 W/m2
02:18 12.2 °C 7.7 °C 1021.3 hPa Calm     74% 0.0 mm 0 W/m2
02:23 12.1 °C 7.6 °C 1021.3 hPa WSW 1.4 km/h 1.6 km/h 74% 0.0 mm 0 W/m2
02:28 11.9 °C 7.6 °C 1021.3 hPa Calm     75% 0.0 mm 0 W/m2
02:33 11.7 °C 7.6 °C 1021.3 hPa Calm     76% 0.0 mm 0 W/m2
02:38 11.6 °C 7.7 °C 1021.3 hPa Calm     77% 0.0 mm 0 W/m2
02:43 11.4 °C 7.5 °C 1021.3 hPa Calm     77% 0.0 mm 0 W/m2
02:48 11.3 °C 7.6 °C 1021.3 hPa Calm     78% 0.0 mm 0 W/m2
02:53 11.2 °C 7.5 °C 1021.3 hPa Calm     78% 0.0 mm 0 W/m2
02:58 11.2 °C 7.7 °C 1021.3 hPa Calm     79% 0.0 mm 0 W/m2
03:03 11.1 °C 7.6 °C 1021.3 hPa Calm   1.6 km/h 79% 0.0 mm 0 W/m2
03:09 10.9 °C 7.6 °C 1021.3 hPa Calm     80% 0.0 mm 0 W/m2
03:14 10.8 °C 7.5 °C 1021.3 hPa Calm     80% 0.0 mm 0 W/m2
03:19 10.7 °C 7.6 °C 1021.3 hPa Calm     81% 0.0 mm 0 W/m2
03:24 10.6 °C 7.5 °C 1021.3 hPa Calm   3.2 km/h 81% 0.0 mm 0 W/m2
03:29 10.5 °C 7.6 °C 1021.3 hPa Calm   1.6 km/h 82% 0.0 mm 0 W/m2
03:34 10.4 °C 7.5 °C 1021.3 hPa Calm   3.2 km/h 82% 0.0 mm 0 W/m2
03:39 10.4 °C 7.5 °C 1021.3 hPa Calm     82% 0.0 mm 0 W/m2
03:44 10.3 °C 7.5 °C 1021.3 hPa Calm     83% 0.0 mm 0 W/m2
03:49 10.2 °C 7.4 °C 1021.3 hPa Calm     83% 0.0 mm 0 W/m2
03:54 10.1 °C 7.5 °C 1021.3 hPa Calm     84% 0.0 mm 0 W/m2
03:59 10 °C 7.4 °C 1021.3 hPa Calm     84% 0.0 mm 0 W/m2
04:04 9.9 °C 7.3 °C 1021.3 hPa Calm     84% 0.0 mm 0 W/m2
04:10 9.8 °C 7.4 °C 1021.3 hPa Calm     85% 0.0 mm 0 W/m2
04:15 9.8 °C 7.4 °C 1021.3 hPa Calm     85% 0.0 mm 0 W/m2
04:20 9.7 °C 7.3 °C 1021.3 hPa Calm     85% 0.0 mm 0 W/m2
04:25 9.6 °C 7.4 °C 1021.3 hPa Calm     86% 0.0 mm 0 W/m2
04:30 9.6 °C 7.4 °C 1021.3 hPa Calm   1.6 km/h 86% 0.0 mm 0 W/m2
04:35 9.6 °C 7.4 °C 1021.3 hPa Calm     86% 0.0 mm 0 W/m2
04:40 9.4 °C 7.2 °C 1021.3 hPa Calm     86% 0.0 mm 0 W/m2
04:45 9.4 °C 7.2 °C 1021.0 hPa Calm   1.6 km/h 86% 0.0 mm 0 W/m2
04:50 9.4 °C 7.2 °C 1021.0 hPa Calm     86% 0.0 mm 0 W/m2
04:55 9.3 °C 7.2 °C 1021.0 hPa Calm   1.6 km/h 87% 0.0 mm 0 W/m2
05:00 9.3 °C 7.2 °C 1021.0 hPa Calm     87% 0.0 mm 0 W/m2
05:05 9.2 °C 7.1 °C 1021.0 hPa Calm     87% 0.0 mm 0 W/m2
05:10 9.1 °C 7.1 °C 1021.0 hPa Calm   1.6 km/h 87% 0.0 mm 0 W/m2
05:15 9 °C 7 °C 1021.0 hPa Calm     87% 0.0 mm 0 W/m2
05:20 8.9 °C 7 °C 1021.0 hPa Calm   1.6 km/h 88% 0.0 mm 0 W/m2
05:25 8.9 °C 7 °C 1021.0 hPa Calm     88% 0.0 mm 0 W/m2
05:30 8.8 °C 7.1 °C 1021.0 hPa Calm     89% 0.0 mm 0 W/m2
05:35 8.8 °C 7.1 °C 1021.3 hPa Calm     89% 0.0 mm 0 W/m2
05:40 8.7 °C 7 °C 1021.3 hPa Calm     89% 0.0 mm 5 W/m2
05:45 8.7 °C 7 °C 1021.0 hPa Calm     89% 0.0 mm 5 W/m2
05:50 8.7 °C 7.2 °C 1021.3 hPa Calm     90% 0.0 mm 7 W/m2
05:55 8.7 °C 7 °C 1021.3 hPa Calm     89% 0.0 mm 9 W/m2
06:00 8.7 °C 7.2 °C 1021.3 hPa Calm     90% 0.0 mm 11 W/m2
06:05 8.7 °C 7.2 °C 1021.3 hPa Calm     90% 0.0 mm 14 W/m2
06:10 8.7 °C 7.2 °C 1021.3 hPa Calm     90% 0.0 mm 14 W/m2
06:15 8.7 °C 7.2 °C 1021.3 hPa Calm     90% 0.0 mm 16 W/m2
06:20 8.8 °C 7.2 °C 1021.3 hPa Calm     90% 0.0 mm 18 W/m2
06:25 8.8 °C 7.2 °C 1021.3 hPa Calm     90% 0.0 mm 19 W/m2
06:31 9 °C 7.4 °C 1021.3 hPa Calm     90% 0.0 mm 21 W/m2
06:36 9.2 °C 7.6 °C 1021.3 hPa Calm     90% 0.0 mm 23 W/m2
06:41 9.2 °C 7.5 °C 1021.0 hPa Calm     89% 0.0 mm 25 W/m2
06:46 9.3 °C 7.6 °C 1021.3 hPa Calm     89% 0.0 mm 25 W/m2
06:51 9.3 °C 7.4 °C 1021.0 hPa Calm     88% 0.0 mm 26 W/m2
06:56 9.4 °C 7.5 °C 1021.0 hPa Calm     88% 0.0 mm 26 W/m2
07:01 9.6 °C 7.7 °C 1021.3 hPa Calm   1.6 km/h 88% 0.0 mm 28 W/m2
07:06 9.8 °C 7.9 °C 1021.3 hPa Calm   1.6 km/h 88% 0.0 mm 28 W/m2
07:11 10 °C 7.9 °C 1021.0 hPa Calm     87% 0.0 mm 30 W/m2
07:16 10.2 °C 8 °C 1021.0 hPa Calm   1.6 km/h 86% 0.0 mm 30 W/m2
07:21 10.4 °C 8.2 °C 1021.0 hPa NW 1.4 km/h 3.2 km/h 86% 0.0 mm 32 W/m2
07:26 10.7 °C 8.3 °C 1021.0 hPa WNW 1.4 km/h 3.2 km/h 85% 0.0 mm 32 W/m2
07:31 10.8 °C 8.2 °C 1021.0 hPa NNW 1.4 km/h 3.2 km/h 84% 0.0 mm 33 W/m2
07:36 11 °C 8.2 °C 1021.0 hPa NW 1.4 km/h 3.2 km/h 83% 0.0 mm 33 W/m2
07:41 11.2 °C 8.2 °C 1021.0 hPa Calm     82% 0.0 mm 35 W/m2
07:46 11.4 °C 8.4 °C 1021.0 hPa NW 1.4 km/h 1.6 km/h 82% 0.0 mm 37 W/m2
07:51 11.6 °C 8.5 °C 1021.0 hPa Calm   1.6 km/h 81% 0.0 mm 97 W/m2
07:56 11.7 °C 8.5 °C 1021.0 hPa Calm     81% 0.0 mm 241 W/m2
08:01 12.2 °C 9 °C 1021.0 hPa Calm   1.6 km/h 81% 0.0 mm 258 W/m2
08:06 12.7 °C 9.3 °C 1021.3 hPa East 1.4 km/h 1.6 km/h 80% 0.0 mm 272 W/m2
08:11 13.3 °C 9.5 °C 1021.3 hPa Calm   3.2 km/h 78% 0.0 mm 287 W/m2
08:16 13.8 °C 9.6 °C 1021.3 hPa Calm   1.6 km/h 76% 0.0 mm 237 W/m2
08:21 14.3 °C 9.5 °C 1021.3 hPa ENE 3.2 km/h 4.8 km/h 73% 0.0 mm 121 W/m2
08:27 14.6 °C 9.6 °C 1021.3 hPa East 4.7 km/h 4.8 km/h 72% 0.0 mm 49 W/m2
08:32 15 °C 9.8 °C 1021.3 hPa East 1.4 km/h 1.6 km/h 71% 0.0 mm 49 W/m2
08:37 15.4 °C 10 °C 1021.3 hPa Calm   1.6 km/h 70% 0.0 mm 49 W/m2
08:42 15.8 °C 9.9 °C 1021.3 hPa ENE 1.4 km/h 3.2 km/h 68% 0.0 mm 47 W/m2
08:47 16.2 °C 9.8 °C 1021.3 hPa ENE 3.2 km/h 3.2 km/h 66% 0.0 mm 47 W/m2
08:52 16.3 °C 10.2 °C 1021.3 hPa ESE 3.2 km/h 3.2 km/h 67% 0.0 mm 47 W/m2
08:57 16.6 °C 10 °C 1021.3 hPa ENE 3.2 km/h 3.2 km/h 65% 0.0 mm 49 W/m2
09:02 16.7 °C 9.9 °C 1021.3 hPa ENE 3.2 km/h 4.8 km/h 64% 0.0 mm 49 W/m2
09:07 16.8 °C 10 °C 1021.3 hPa ENE 3.2 km/h 3.2 km/h 64% 0.0 mm 62 W/m2
09:12 16.7 °C 9.9 °C 1021.3 hPa Calm   6.4 km/h 64% 0.0 mm 214 W/m2
09:17 16.8 °C 10 °C 1021.3 hPa ESE 1.4 km/h 4.8 km/h 64% 0.0 mm 383 W/m2
09:22 16.8 °C 10 °C 1021.3 hPa East 4.7 km/h 4.8 km/h 64% 0.0 mm 459 W/m2
09:27 17 °C 10.1 °C 1021.3 hPa SE 1.4 km/h 4.8 km/h 64% 0.0 mm 487 W/m2
09:32 17.2 °C 9.9 °C 1021.3 hPa NNE 1.4 km/h 3.2 km/h 62% 0.0 mm 503 W/m2
09:37 17.1 °C 10 °C 1021.3 hPa NE 4.7 km/h 8 km/h 63% 0.0 mm 513 W/m2
09:42 17.2 °C 9.9 °C 1021.3 hPa SE 3.2 km/h 3.2 km/h 62% 0.0 mm 527 W/m2
09:47 17.4 °C 10.3 °C 1021.0 hPa NE 3.2 km/h 8 km/h 63% 0.0 mm 534 W/m2
09:52 17.4 °C 9.8 °C 1021.0 hPa WNW 6.4 km/h 6.4 km/h 61% 0.0 mm 550 W/m2
09:57 17.4 °C 9.8 °C 1021.3 hPa SE 3.2 km/h 8 km/h 61% 0.0 mm 559 W/m2
10:02 17.7 °C 9.8 °C 1021.0 hPa SSW 1.4 km/h 1.6 km/h 60% 0.0 mm 577 W/m2
10:07 17.9 °C 10.3 °C 1021.0 hPa ENE 3.2 km/h 6.4 km/h 61% 0.0 mm 582 W/m2
10:12 18 °C 10.4 °C 1021.0 hPa NE 1.4 km/h 1.6 km/h 61% 0.0 mm 60 W/m2
10:17 18 °C 9.9 °C 1021.0 hPa ESE 1.4 km/h 6.4 km/h 59% 0.0 mm 144 W/m2
10:22 18 °C 9.9 °C 1021.0 hPa East 4.7 km/h 4.8 km/h 59% 0.0 mm 631 W/m2
10:27 18.1 °C 10 °C 1020.7 hPa ESE 3.2 km/h 6.4 km/h 59% 0.0 mm 643 W/m2
10:32 18.1 °C 10 °C 1020.7 hPa NNE 3.2 km/h 4.8 km/h 59% 0.0 mm 661 W/m2
10:37 18.3 °C 9.6 °C 1020.7 hPa NE 1.4 km/h 6.4 km/h 57% 0.0 mm 675 W/m2
10:42 18.2 °C 9.5 °C 1020.7 hPa Calm   4.8 km/h 57% 0.0 mm 700 W/m2
10:47 18.2 °C 9.8 °C 1020.7 hPa North 1.4 km/h 3.2 km/h 58% 0.0 mm 717 W/m2
10:52 18.4 °C 9.7 °C 1020.7 hPa ENE 3.2 km/h 12.9 km/h 57% 0.0 mm 735 W/m2
10:57 18.6 °C 9.6 °C 1020.7 hPa ESE 3.2 km/h 4.8 km/h 56% 0.0 mm 724 W/m2
11:02 18.8 °C 9.6 °C 1020.7 hPa WNW 1.4 km/h 12.9 km/h 55% 0.0 mm 795 W/m2
11:07 18.7 °C 9.5 °C 1020.7 hPa WNW 1.4 km/h 4.8 km/h 55% 0.0 mm 821 W/m2
11:12 18.8 °C 9.8 °C 1020.7 hPa Calm   3.2 km/h 56% 0.0 mm 911 W/m2
11:17 19 °C 9.8 °C 1020.7 hPa NE 3.2 km/h 8 km/h 55% 0.0 mm 925 W/m2
11:22 18.8 °C 9.3 °C 1020.7 hPa WSW 4.7 km/h 6.4 km/h 54% 0.0 mm 374 W/m2
11:27 18.7 °C 9.2 °C 1020.7 hPa West 4.7 km/h 8 km/h 54% 0.0 mm 290 W/m2
11:32 18.3 °C 8.8 °C 1020.7 hPa WNW 1.4 km/h 8 km/h 54% 0.0 mm 339 W/m2
11:37 18.3 °C 9.1 °C 1020.7 hPa WNW 4.7 km/h 6.4 km/h 55% 0.0 mm 1074 W/m2
11:42 18.4 °C 8.9 °C 1020.7 hPa NNW 3.2 km/h 3.2 km/h 54% 0.0 mm 1072 W/m2
11:47 18.8 °C 9.3 °C 1020.7 hPa NW 6.4 km/h 8 km/h 54% 0.0 mm 763 W/m2
11:52 19.2 °C 9.1 °C 1020.7 hPa South 4.7 km/h 6.4 km/h 52% 0.0 mm 1063 W/m2
11:57 19.3 °C 8.9 °C 1020.7 hPa NNW 7.9 km/h 8 km/h 51% 0.0 mm 963 W/m2
12:02 19.4 °C 8.7 °C 1020.3 hPa NE 1.4 km/h 1.6 km/h 50% 0.0 mm 155 W/m2
12:07 19.3 °C 8.9 °C 1020.7 hPa WSW 4.7 km/h 11.3 km/h 51% 0.0 mm 120 W/m2
12:12 18.7 °C 8.6 °C 1020.7 hPa West 3.2 km/h 6.4 km/h 52% 0.0 mm 134 W/m2
12:18 18.4 °C 8.9 °C 1020.3 hPa WNW 3.2 km/h 4.8 km/h 54% 0.0 mm 167 W/m2
12:23 18.7 °C 9.2 °C 1020.7 hPa NW 3.2 km/h 6.4 km/h 54% 0.0 mm 928 W/m2
12:28 19.2 °C 8.5 °C 1020.7 hPa WNW 4.7 km/h 8 km/h 50% 0.0 mm 954 W/m2
12:33 19.4 °C 8.4 °C 1020.3 hPa West 9.7 km/h 12.9 km/h 49% 0.0 mm 979 W/m2
12:38 19.7 °C 7.4 °C 1020.3 hPa NE 4.7 km/h 8 km/h 45% 0.0 mm 1034 W/m2
12:43 20.2 °C 7.9 °C 1020.3 hPa NNW 3.2 km/h 12.9 km/h 45% 0.0 mm 1056 W/m2
12:48 20.1 °C 9.1 °C 1020.3 hPa NW 6.4 km/h 11.3 km/h 49% 0.0 mm 246 W/m2
12:53 19.6 °C 8.6 °C 1020.3 hPa NNW 6.4 km/h 16.1 km/h 49% 0.0 mm 229 W/m2
12:58 19.3 °C 8.3 °C 1020.3 hPa WNW 4.7 km/h 11.3 km/h 49% 0.0 mm 253 W/m2
13:03 19.2 °C 9.1 °C 1020.3 hPa NW 4.7 km/h 6.4 km/h 52% 0.0 mm 276 W/m2
13:08 19.2 °C 8.8 °C 1020.3 hPa WNW 6.4 km/h 12.9 km/h 51% 0.0 mm 350 W/m2
13:13 19.1 °C 8.7 °C 1020.3 hPa WNW 3.2 km/h 6.4 km/h 51% 0.0 mm 396 W/m2
13:18 19.4 °C 9.3 °C 1020.3 hPa West 4.7 km/h 12.9 km/h 52% 0.0 mm 1130 W/m2
13:23 19.7 °C 9 °C 1020.0 hPa West 1.4 km/h 12.9 km/h 50% 0.0 mm 274 W/m2
13:28 19.4 °C 8.4 °C 1020.3 hPa West 3.2 km/h 6.4 km/h 49% 0.0 mm 262 W/m2
13:33 19.3 °C 9.2 °C 1020.0 hPa West 1.4 km/h 12.9 km/h 52% 0.0 mm 229 W/m2
13:38 19.4 °C 8.7 °C 1020.0 hPa WNW 3.2 km/h 8 km/h 50% 0.0 mm 257 W/m2
13:43 19.4 °C 9 °C 1020.0 hPa WNW 4.7 km/h 6.4 km/h 51% 0.0 mm 295 W/m2
13:48 19.4 °C 8.7 °C 1020.0 hPa WNW 3.2 km/h 4.8 km/h 50% 0.0 mm 330 W/m2
13:53 19.7 °C 8.4 °C 1020.0 hPa North 3.2 km/h 6.4 km/h 48% 0.0 mm 359 W/m2
13:58 19.8 °C 8.2 °C 1020.0 hPa NW 1.4 km/h 6.4 km/h 47% 0.0 mm 520 W/m2
14:03 19.8 °C 8.5 °C 1020.0 hPa West 9.7 km/h 9.7 km/h 48% 0.0 mm 320 W/m2
14:08 19.8 °C 8.5 °C 1020.0 hPa WNW 3.2 km/h 8 km/h 48% 0.0 mm 311 W/m2
14:13 19.8 °C 8.5 °C 1020.0 hPa West 4.7 km/h 6.4 km/h 48% 0.0 mm 311 W/m2
14:18 19.8 °C 8.5 °C 1019.6 hPa NNW 3.2 km/h 4.8 km/h 48% 0.0 mm 360 W/m2
14:23 20.2 °C 8.5 °C 1019.6 hPa NW 7.9 km/h 11.3 km/h 47% 0.0 mm 253 W/m2
14:28 20.2 °C 8.2 °C 1019.6 hPa NW 1.4 km/h 6.4 km/h 46% 0.0 mm 225 W/m2
14:33 20.5 °C 8.5 °C 1019.6 hPa West 4.7 km/h 8 km/h 46% 0.0 mm 995 W/m2
14:38 20.8 °C 8.4 °C 1019.6 hPa SW 1.4 km/h 6.4 km/h 45% 0.0 mm 1018 W/m2
14:43 20.7 °C 8 °C 1019.3 hPa West 3.2 km/h 4.8 km/h 44% 0.0 mm 213 W/m2
14:48 20.4 °C 8.1 °C 1019.3 hPa Calm   4.8 km/h 45% 0.0 mm 232 W/m2
14:53 20.3 °C 8.6 °C 1019.3 hPa East 1.4 km/h 3.2 km/h 47% 0.0 mm 232 W/m2
14:58 20.3 °C 8.6 °C 1019.3 hPa WSW 3.2 km/h 6.4 km/h 47% 0.0 mm 250 W/m2
15:03 20.4 °C 8.7 °C 1019.3 hPa NW 3.2 km/h 3.2 km/h 47% 0.0 mm 1048 W/m2
15:08 21.1 °C 9 °C 1019.0 hPa SSE 6.4 km/h 9.7 km/h 46% 0.0 mm 1014 W/m2
15:14 21.3 °C 8.2 °C 1019.3 hPa NW 1.4 km/h 8 km/h 43% 0.0 mm 204 W/m2
15:19 21 °C 7.9 °C 1019.0 hPa NW 1.4 km/h 4.8 km/h 43% 0.0 mm 267 W/m2
15:24 20.9 °C 8.2 °C 1019.0 hPa Calm   3.2 km/h 44% 0.0 mm 264 W/m2
15:29 21.2 °C 8.1 °C 1019.0 hPa West 9.7 km/h 12.9 km/h 43% 0.0 mm 230 W/m2
15:34 21.1 °C 8.4 °C 1019.0 hPa West 1.4 km/h 4.8 km/h 44% 0.0 mm 272 W/m2
15:39 21.3 °C 8.6 °C 1019.0 hPa WNW 3.2 km/h 6.4 km/h 44% 0.0 mm 330 W/m2
15:44 21.6 °C 8.5 °C 1019.0 hPa ENE 3.2 km/h 6.4 km/h 43% 0.0 mm 1023 W/m2
15:49 22.2 °C 9 °C 1019.0 hPa ENE 3.2 km/h 8 km/h 43% 0.0 mm 1037 W/m2
15:54 22.7 °C 8.8 °C 1019.0 hPa West 6.4 km/h 8 km/h 41% 0.0 mm 946 W/m2
15:59 22.6 °C 8.7 °C 1019.0 hPa SW 6.4 km/h 6.4 km/h 41% 0.0 mm 956 W/m2
16:04 22.6 °C 8.7 °C 1019.0 hPa WSW 9.7 km/h 9.7 km/h 41% 0.0 mm 914 W/m2
16:09 22.4 °C 8.9 °C 1019.0 hPa West 4.7 km/h 6.4 km/h 42% 0.0 mm 881 W/m2
16:14 22.5 °C 8.6 °C 1019.0 hPa West 3.2 km/h 9.7 km/h 41% 0.0 mm 882 W/m2
16:19 22.6 °C 9 °C 1018.6 hPa WNW 4.7 km/h 8 km/h 42% 0.0 mm 863 W/m2
16:24 22.7 °C 9.5 °C 1019.0 hPa WSW 7.9 km/h 16.1 km/h 43% 0.0 mm 840 W/m2
16:29 22.3 °C 8.8 °C 1019.0 hPa WSW 4.7 km/h 6.4 km/h 42% 0.0 mm 130 W/m2
16:34 21.8 °C 8.7 °C 1019.0 hPa West 4.7 km/h 6.4 km/h 43% 0.0 mm 858 W/m2
16:39 21.7 °C 8.6 °C 1018.6 hPa WNW 3.2 km/h 6.4 km/h 43% 0.0 mm 160 W/m2
16:44 21.6 °C 8.5 °C 1018.6 hPa WNW 3.2 km/h 4.8 km/h 43% 0.0 mm 800 W/m2
16:49 21.8 °C 8.7 °C 1018.3 hPa Calm   1.6 km/h 43% 0.0 mm 803 W/m2
16:54 22.2 °C 8.7 °C 1018.3 hPa WSW 3.2 km/h 8 km/h 42% 0.0 mm 761 W/m2
16:59 22.4 °C 8.9 °C 1018.3 hPa NW 1.4 km/h 14.5 km/h 42% 0.0 mm 738 W/m2
17:04 22.6 °C 9.4 °C 1018.3 hPa WNW 7.9 km/h 12.9 km/h 43% 0.0 mm 763 W/m2
17:09 22.2 °C 8.3 °C 1018.3 hPa West 3.2 km/h 6.4 km/h 41% 0.0 mm 206 W/m2
17:14 21.7 °C 7.9 °C 1018.3 hPa West 6.4 km/h 6.4 km/h 41% 0.0 mm 167 W/m2
17:19 21.4 °C 8.3 °C 1018.3 hPa West 4.7 km/h 6.4 km/h 43% 0.0 mm 172 W/m2
17:24 21.6 °C 8.5 °C 1018.3 hPa West 3.2 km/h 6.4 km/h 43% 0.0 mm 714 W/m2
17:29 22 °C 8.5 °C 1018.0 hPa WSW 4.7 km/h 8 km/h 42% 0.0 mm 679 W/m2
17:34 22.3 °C 8.8 °C 1018.0 hPa WNW 4.7 km/h 6.4 km/h 42% 0.0 mm 652 W/m2
17:39 22.5 °C 8.6 °C 1018.0 hPa NW 4.7 km/h 12.9 km/h 41% 0.0 mm 615 W/m2
17:44 22.6 °C 8.7 °C 1018.0 hPa NW 9.7 km/h 9.7 km/h 41% 0.0 mm 617 W/m2
17:49 22.7 °C 8.4 °C 1018.0 hPa NNW 7.9 km/h 14.5 km/h 40% 0.0 mm 619 W/m2
17:54 22.7 °C 8.8 °C 1018.0 hPa NW 7.9 km/h 12.9 km/h 41% 0.0 mm 645 W/m2
17:59 22.7 °C 8.4 °C 1018.0 hPa NW 7.9 km/h 11.3 km/h 40% 0.0 mm 415 W/m2
18:04 22.7 °C 9.1 °C 1018.0 hPa NW 3.2 km/h 12.9 km/h 42% 0.0 mm 591 W/m2
18:09 22.8 °C 9.2 °C 1017.6 hPa Calm   3.2 km/h 42% 0.0 mm 573 W/m2
18:14 23 °C 8.7 °C 1018.0 hPa NW 4.7 km/h 16.1 km/h 40% 0.0 mm 541 W/m2
18:19 22.9 °C 8.9 °C 1017.6 hPa West 1.4 km/h 8 km/h 41% 0.0 mm 499 W/m2
18:24 23.1 °C 8.8 °C 1017.6 hPa WNW 6.4 km/h 8 km/h 40% 0.0 mm 480 W/m2
18:29 22.9 °C 8.6 °C 1017.6 hPa West 9.7 km/h 9.7 km/h 40% 0.0 mm 459 W/m2
18:34 22.3 °C 8.8 °C 1017.6 hPa WNW 11.1 km/h 11.3 km/h 42% 0.0 mm 60 W/m2
18:39 21.8 °C 9.3 °C 1017.6 hPa WNW 3.2 km/h 9.7 km/h 45% 0.0 mm 97 W/m2
18:44 21.9 °C 9.1 °C 1017.6 hPa WNW 4.7 km/h 4.8 km/h 44% 0.0 mm 366 W/m2
18:49 21.9 °C 8.8 °C 1017.6 hPa SW 1.4 km/h 4.8 km/h 43% 0.0 mm 343 W/m2
18:54 22.2 °C 9 °C 1017.6 hPa WSW 1.4 km/h 6.4 km/h 43% 0.0 mm 313 W/m2
18:59 22.5 °C 9.3 °C 1017.6 hPa West 3.2 km/h 6.4 km/h 43% 0.0 mm 295 W/m2
19:04 22.5 °C 8.9 °C 1017.6 hPa NW 6.4 km/h 6.4 km/h 42% 0.0 mm 274 W/m2
19:09 22.3 °C 8.8 °C 1017.6 hPa WNW 6.4 km/h 12.9 km/h 42% 0.0 mm 176 W/m2
19:14 22.2 °C 9 °C 1017.6 hPa WSW 6.4 km/h 11.3 km/h 43% 0.0 mm 285 W/m2
19:19 22.3 °C 8.8 °C 1017.3 hPa WNW 4.7 km/h 12.9 km/h 42% 0.0 mm 306 W/m2
19:24 22.3 °C 8.8 °C 1017.3 hPa WNW 4.7 km/h 8 km/h 42% 0.0 mm 155 W/m2
19:29 22.3 °C 8.4 °C 1017.3 hPa WNW 1.4 km/h 6.4 km/h 41% 0.0 mm 301 W/m2
19:34 22.3 °C 8.8 °C 1017.6 hPa NW 1.4 km/h 8 km/h 42% 0.0 mm 84 W/m2
19:39 22.2 °C 9 °C 1017.3 hPa WSW 6.4 km/h 9.7 km/h 43% 0.0 mm 93 W/m2
19:44 22.1 °C 8.9 °C 1017.6 hPa WSW 6.4 km/h 6.4 km/h 43% 0.0 mm 227 W/m2
19:49 22.1 °C 9.3 °C 1017.3 hPa WNW 3.2 km/h 4.8 km/h 44% 0.0 mm 186 W/m2
19:54 22.2 °C 9 °C 1017.3 hPa WNW 4.7 km/h 6.4 km/h 43% 0.0 mm 58 W/m2
19:59 22.2 °C 9 °C 1017.6 hPa WNW 3.2 km/h 9.7 km/h 43% 0.0 mm 162 W/m2
20:09 22 °C 8.8 °C 1017.3 hPa WNW 3.2 km/h 9.7 km/h 43% 0.0 mm 97 W/m2
20:14 21.9 °C 9.1 °C 1017.3 hPa WSW 4.7 km/h 9.7 km/h 44% 0.0 mm 139 W/m2
20:19 21.8 °C 9.3 °C 1017.3 hPa West 4.7 km/h 11.3 km/h 45% 0.0 mm 130 W/m2
20:24 21.5 °C 9.1 °C 1017.3 hPa West 4.7 km/h 6.4 km/h 45% 0.0 mm 93 W/m2
20:29 21.3 °C 9.2 °C 1017.3 hPa West 6.4 km/h 9.7 km/h 46% 0.0 mm 90 W/m2
20:34 21.2 °C 9.4 °C 1017.3 hPa West 6.4 km/h 6.4 km/h 47% 0.0 mm 88 W/m2
20:39 21 °C 9.3 °C 1017.3 hPa WNW 4.7 km/h 6.4 km/h 47% 0.0 mm 74 W/m2
20:44 20.9 °C 9.5 °C 1017.3 hPa West 3.2 km/h 6.4 km/h 48% 0.0 mm 62 W/m2
20:49 20.8 °C 9.4 °C 1017.3 hPa WSW 3.2 km/h 6.4 km/h 48% 0.0 mm 60 W/m2
20:54 20.7 °C 9.6 °C 1017.3 hPa West 1.4 km/h 6.4 km/h 49% 0.0 mm 47 W/m2
20:59 20.6 °C 9.5 °C 1017.3 hPa WSW 3.2 km/h 3.2 km/h 49% 0.0 mm 42 W/m2
21:04 20.4 °C 9.3 °C 1017.3 hPa West 3.2 km/h 6.4 km/h 49% 0.0 mm 35 W/m2
21:09 20.3 °C 9.5 °C 1017.3 hPa WSW 1.4 km/h 4.8 km/h 50% 0.0 mm 28 W/m2
21:14 20.1 °C 9.6 °C 1017.3 hPa West 1.4 km/h 6.4 km/h 51% 0.0 mm 21 W/m2
21:19 19.9 °C 9.5 °C 1017.3 hPa West 1.4 km/h 1.6 km/h 51% 0.0 mm 14 W/m2
21:24 19.7 °C 9.6 °C 1017.3 hPa West 3.2 km/h 4.8 km/h 52% 0.0 mm 11 W/m2
21:29 19.4 °C 9.6 °C 1017.3 hPa WNW 1.4 km/h 3.2 km/h 53% 0.0 mm 7 W/m2
21:34 19.2 °C 9.7 °C 1017.3 hPa Calm   4.8 km/h 54% 0.0 mm 5 W/m2
21:39 18.9 °C 9.4 °C 1017.3 hPa WSW 1.4 km/h 3.2 km/h 54% 0.0 mm 0 W/m2
21:44 18.8 °C 9.8 °C 1017.3 hPa Calm   1.6 km/h 56% 0.0 mm 0 W/m2
21:49 18.6 °C 9.6 °C 1017.3 hPa Calm   3.2 km/h 56% 0.0 mm 0 W/m2
21:54 18.3 °C 9.6 °C 1017.3 hPa WSW 1.4 km/h 1.6 km/h 57% 0.0 mm 0 W/m2
21:59 18.2 °C 9.8 °C 1017.3 hPa Calm     58% 0.0 mm 0 W/m2
22:04 17.9 °C 9.8 °C 1017.3 hPa WSW 1.4 km/h 1.6 km/h 59% 0.0 mm 0 W/m2
22:09 17.7 °C 9.8 °C 1017.3 hPa Calm     60% 0.0 mm 0 W/m2
22:14 17.5 °C 9.9 °C 1017.3 hPa Calm     61% 0.0 mm 0 W/m2
22:19 17.3 °C 9.7 °C 1017.3 hPa Calm     61% 0.0 mm 0 W/m2
22:24 17 °C 9.7 °C 1017.3 hPa Calm     62% 0.0 mm 0 W/m2
22:29 16.8 °C 9.5 °C 1017.6 hPa Calm     62% 0.0 mm 0 W/m2
22:34 16.7 °C 9.6 °C 1017.6 hPa Calm     63% 0.0 mm 0 W/m2
22:39 16.5 °C 9.4 °C 1017.6 hPa Calm     63% 0.0 mm 0 W/m2
22:44 16.3 °C 9.5 °C 1017.6 hPa Calm     64% 0.0 mm 0 W/m2
22:50 16.1 °C 9.3 °C 1017.6 hPa Calm     64% 0.0 mm 0 W/m2
22:55 15.9 °C 9.3 °C 1017.6 hPa Calm     65% 0.0 mm 0 W/m2
23:00 15.8 °C 9.5 °C 1017.3 hPa Calm     66% 0.0 mm 0 W/m2
23:05 15.6 °C 9.3 °C 1017.6 hPa Calm     66% 0.0 mm 0 W/m2
23:10 15.5 °C 9.4 °C 1017.6 hPa Calm     67% 0.0 mm 0 W/m2
23:15 15.4 °C 9.3 °C 1017.6 hPa Calm     67% 0.0 mm 0 W/m2
23:20 15.3 °C 9.2 °C 1017.6 hPa Calm     67% 0.0 mm 0 W/m2
23:25 15.2 °C 9.3 °C 1017.6 hPa Calm     68% 0.0 mm 0 W/m2
23:30 15.1 °C 9.2 °C 1017.3 hPa Calm     68% 0.0 mm 0 W/m2
23:35 14.9 °C 9.3 °C 1017.3 hPa Calm     69% 0.0 mm 0 W/m2
23:40 14.8 °C 9.2 °C 1017.3 hPa Calm     69% 0.0 mm 0 W/m2
23:45 14.7 °C 9.3 °C 1017.6 hPa Calm     70% 0.0 mm 0 W/m2
23:50 14.7 °C 9.5 °C 1017.6 hPa Calm     71% 0.0 mm 0 W/m2
23:55 14.6 °C 9.4 °C 1017.6 hPa Calm     71% 0.0 mm 0 W/m2
Juneau County Weather
Compliments of Weather Underground - 4 mb